Terminal Aerodrome Forecast
Issued by NWS Memphis, TN

Home | Current Version | Previous Version | Text Only | Print | Product List | Glossary On
Versions: 1 2 3 4 5 6 7 8 9 10 11 12 13 14 15 16 17 18 19 20 21 22
378
FTUS44 KMEG 240527
TAFJBR
TAF
KJBR 240527Z 2406/2506 05006KT P6SM OVC025
     FM240900 08005KT 4SM TSRA OVC004CB
      TEMPO 2409/2413 1SM BR
     FM241600 20011G19KT P6SM VCTS OVC009CB
     FM242200 19016G22KT 5SM SHRA BR VCTS OVC015CB
     FM250400 24014KT P6SM -RA OVC050=

USA.gov is the U.S. government's official web portal to all federal, state and local government web resources and services.